Flight Track Log - Related Links

Times and Time Zones

All times are in EDT time to prevent confusion due to time zone crossing. See the ASQ4264 flight status page for this flight to view local times or setup timezone preferences in your user account.

Time Position Orientation Groundspeed Altitude Reporting Facility
EDT Latitude Longitude Course Direction KTS MPH feet Rate Location/Type
Sat 09:02:15 AM 41.9829 -87.8751 329° Northwest  Level FlightAware Approximate
Sat 09:03:00 AM 42.0333 -87.9167 90° East 190 219 3,500  Level Chicago TRACON
Sat 09:03:49 AM 42.0333 -87.8500 94° East 224 258 5,000 1,438 Climbing Chicago TRACON
Sat 09:05:26 AM 42.0261 -87.7147 90° East 259 298 7,000 1,682 Climbing Chicago Center
Sat 09:06:26 AM 42.0267 -87.6139 91° East 259 298 9,400 1,950 Climbing Chicago Center
Sat 09:07:26 AM 42.0250 -87.5050 89° East 271 312 10,900 1,200 Climbing Chicago Center
Sat 09:08:26 AM 42.0269 -87.3764 90° East 309 356 11,800 1,200 Climbing Chicago Center
Sat 09:09:26 AM 42.0267 -87.2394 88° East 340 391 13,300 1,400 Climbing Chicago Center
Sat 09:10:26 AM 42.0303 -87.0994 88° East 359 413 14,600 1,300 Climbing Chicago Center
Sat 09:11:26 AM 42.0336 -86.9569 88° East 371 427 15,900 1,250 Climbing Chicago Center
Sat 09:12:26 AM 42.0369 -86.8114 89° East 377 434 17,100 1,200 Climbing Chicago Center
Sat 09:13:26 AM 42.0392 -86.6406 89° East 397 457 18,300 1,200 Climbing Chicago Center
Sat 09:14:26 AM 42.0417 -86.4894 90° East 404 465 19,500 1,250 Climbing Chicago Center
Sat 09:15:26 AM 42.0419 -86.3358 88° East 404 465 20,800 1,150 Climbing Chicago Center
Sat 09:16:26 AM 42.0464 -86.1928 89° East 404 465 21,800 1,050 Climbing Chicago Center
Sat 09:17:26 AM 42.0483 -86.0361 90° East 415 478 22,900 600 Climbing Chicago Center
Sat 09:18:26 AM 42.0478 -85.8739 89° East 423 487 23,000 50 Climbing Chicago Center
Sat 09:19:26 AM 42.0506 -85.7003 89° East 443 510 23,000  Level Chicago Center
Sat 09:21:17 AM 42.0533 -85.3828 89° East 478 550 23,000  Level Cleveland Center
Sat 09:22:17 AM 42.0550 -85.1953 91° East 459 528 23,000  Level Cleveland Center
Sat 09:23:17 AM 42.0531 -85.0272 90° East 453 521 23,000  Level Cleveland Center
Sat 09:24:17 AM 42.0533 -84.8567 91° East 453 521 23,000  Level Cleveland Center
Sat 09:25:17 AM 42.0514 -84.6803 88° East 464 534 23,000  Level Cleveland Center
Sat 09:26:17 AM 42.0556 -84.5072 91° East 464 534 23,000  Level Cleveland Center
Sat 09:27:17 AM 42.0528 -84.3392 90° East 455 524 23,000  Level Cleveland Center
Sat 09:28:17 AM 42.0517 -84.1739 89° East 455 524 23,000  Level Cleveland Center
Sat 09:29:17 AM 42.0528 -84.0006 91° East 450 518 23,000  Level Cleveland Center
Sat 09:30:17 AM 42.0494 -83.8269 90° East 458 527 23,000  Level Cleveland Center
Sat 09:31:17 AM 42.0500 -83.6592 92° East 458 527 23,000  Level Cleveland Center
Sat 09:32:17 AM 42.0442 -83.4828 94° East 463 533 23,000 -400 Level Cleveland Center
Sat 09:33:17 AM 42.0339 -83.3089 98° East 463 533 22,200 -1,150 Descending Cleveland Center
Sat 09:34:17 AM 42.0150 -83.1375 98° East 468 539 20,700 -1,450 Descending Cleveland Center
Sat 09:35:17 AM 41.9994 -82.9806 97° East 447 514 19,300 -1,900 Descending Cleveland Center
Sat 09:36:17 AM 41.9842 -82.8178 97° East 442 509 16,900 -2,500 Descending Cleveland Center
Sat 09:37:17 AM 41.9703 -82.6694 101° East 416 479 14,300 -1,450 Descending Cleveland Center
Sat 09:38:17 AM 41.9497 -82.5292 112° Southeast 390 449 14,000 -623 Descending Cleveland Center
Sat 09:39:03 AM 41.9181 -82.4219 114° Southeast 394 453 13,200 -1,912 Descending Cleveland Center
Sat 09:40:10 AM 41.8722 -82.2842 114° Southeast 372 428 10,400 -1,500 Descending Cleveland Center
Sat 09:41:11 AM 41.8303 -82.1603 144° Southeast 365 420 10,000 -189 Descending Cleveland Center
Sat 09:42:17 AM 41.7458 -82.0775 146° Southeast 356 410 10,000  Level Cleveland Center
Sat 09:43:17 AM 41.6614 -82.0006 145° Southeast 368 423 10,000  Level Cleveland Center
Sat 09:44:13 AM 41.5769 -81.9211 151° Southeast 346 398 10,000 -621 Level Cleveland Center
Sat 09:45:13 AM 41.5086 -81.8697 214° Southwest 278 320 8,800 -1,537 Descending Cleveland Center
Sat 09:46:14 AM 41.4539 -81.9186 226° Southwest 256 295 6,900 -2,371 Descending Cleveland Center
Sat 09:47:17 AM 41.4053 -81.9867 233° Southwest 242 278 3,900 -1,934 Descending Cleveland Center
Sat 09:48:15 AM 41.3667 -82.0550 213° Southwest 238 274 3,000 -454 Descending Cleveland Center
Sat 09:49:16 AM 41.3161 -82.0981 104° East 232 267 3,000  Level Cleveland Center
Sat 09:50:16 AM 41.3025 -82.0258 49° Northeast 216 249 3,000 -99 Level Cleveland Center
Sat 09:51:17 AM 41.3367 -81.9742 49° Northeast 193 222 2,800 -545 Descending Cleveland Center
Sat 09:52:17 AM 41.3664 -81.9278 49° Northeast 144 166 1,900 -793 Descending Cleveland Center
Sat 09:53:18 AM 41.3897 -81.8922 49° Northeast 125 144 1,200 -689 Descending Cleveland Center

Login

Don't have an account? Register now (free) for customized features, flight alerts, and more!